createdAt,value
2023-01-18T00:02:45.939Z,-1.03
2023-01-18T00:06:45.736Z,-1.01
2023-01-18T00:10:45.450Z,-1.04
2023-01-18T00:14:44.951Z,-1.05
2023-01-18T00:18:49.875Z,-1.09
2023-01-18T00:22:44.783Z,-1.11
2023-01-18T00:26:44.778Z,-1.14
2023-01-18T00:30:44.909Z,-1.17
2023-01-18T00:34:45.964Z,-1.20
2023-01-18T00:38:50.555Z,-1.27
2023-01-18T00:42:55.107Z,-1.28
2023-01-18T00:46:44.973Z,-1.24
2023-01-18T00:50:44.781Z,-1.23
2023-01-18T00:58:45.429Z,-1.22
2023-01-18T01:02:45.179Z,-1.20
2023-01-18T01:06:45.433Z,-1.21
2023-01-18T01:10:46.432Z,-1.23
2023-01-18T01:14:56.809Z,-1.27
2023-01-18T01:18:54.674Z,-1.39
2023-01-18T01:22:55.458Z,-1.45
2023-01-18T01:26:44.954Z,-1.48
2023-01-18T01:30:45.101Z,-1.46
2023-01-18T01:34:45.078Z,-1.40
2023-01-18T01:42:45.189Z,-1.43
2023-01-18T01:46:49.567Z,-1.48
2023-01-18T01:50:45.143Z,-1.49
2023-01-18T01:54:50.270Z,-1.42
2023-01-18T01:58:50.533Z,-1.40
2023-01-18T02:02:47.830Z,-1.38
2023-01-18T02:06:45.185Z,-1.39
2023-01-18T02:10:45.009Z,-1.38
2023-01-18T02:14:45.219Z,-1.37
2023-01-18T02:18:56.104Z,-1.35
2023-01-18T02:23:06.237Z,-1.36
2023-01-18T02:26:53.948Z,-1.38
2023-01-18T02:34:48.794Z,-1.42
2023-01-18T02:38:46.718Z,-1.47
2023-01-18T02:42:57.233Z,-1.53
2023-01-18T02:46:45.433Z,-1.57
2023-01-18T02:50:45.307Z,-1.61
2023-01-18T02:54:45.361Z,-1.64
2023-01-18T02:58:47.867Z,-1.68
2023-01-18T03:02:47.261Z,-1.72
2023-01-18T03:06:50.608Z,-1.74
2023-01-18T03:10:55.741Z,-1.75
2023-01-18T03:14:56.150Z,-1.80
2023-01-18T03:19:00.544Z,-1.82
2023-01-18T03:23:02.964Z,-1.80
2023-01-18T03:26:48.919Z,-1.77
2023-01-18T03:34:51.744Z,-1.75
2023-01-18T03:38:51.163Z,-1.73
2023-01-18T03:46:45.646Z,-1.80
2023-01-18T03:50:49.992Z,-1.84
2023-01-18T03:54:56.246Z,-1.92
2023-01-18T03:58:48.709Z,-1.96
2023-01-18T04:02:48.026Z,-1.98
2023-01-18T04:06:45.403Z,-1.99
2023-01-18T04:14:45.609Z,-1.98
2023-01-18T04:18:45.280Z,-2.01
2023-01-18T04:22:50.974Z,-2.00
2023-01-18T04:26:45.362Z,-1.99
2023-01-18T04:30:49.083Z,-1.96
2023-01-18T04:34:45.507Z,-1.94
2023-01-18T04:38:45.661Z,-1.95
2023-01-18T04:42:51.197Z,-1.96
2023-01-18T04:46:46.834Z,-2.00
2023-01-18T04:50:47.463Z,-2.02
2023-01-18T04:54:45.566Z,-2.03
2023-01-18T04:58:45.527Z,-2.01
2023-01-18T05:06:47.003Z,-2.04
2023-01-18T05:10:45.491Z,-2.06
2023-01-18T05:14:45.772Z,-2.11
2023-01-18T05:18:45.592Z,-2.17
2023-01-18T05:22:45.715Z,-2.22
2023-01-18T05:26:45.506Z,-2.24
2023-01-18T05:30:48.297Z,-2.30
2023-01-18T05:34:45.669Z,-2.32
2023-01-18T05:38:46.181Z,-2.35
2023-01-18T05:42:45.787Z,-2.38
2023-01-18T05:46:45.685Z,-2.40
2023-01-18T05:50:47.465Z,-2.43
2023-01-18T05:54:46.249Z,-2.49
2023-01-18T06:02:46.126Z,-2.46
2023-01-18T06:06:45.589Z,-2.44
2023-01-18T06:10:51.316Z,-2.43
2023-01-18T06:14:45.644Z,-2.46
2023-01-18T06:18:45.836Z,-2.52
2023-01-18T06:22:45.763Z,-2.53
2023-01-18T06:26:45.965Z,-2.54
2023-01-18T06:30:46.898Z,-2.56
2023-01-18T06:34:45.750Z,-2.52
2023-01-18T06:38:45.735Z,-2.54
2023-01-18T06:42:47.313Z,-2.55
2023-01-18T06:50:45.943Z,-2.56
2023-01-18T06:54:45.738Z,-2.55
2023-01-18T06:58:46.077Z,-2.56
2023-01-18T07:02:45.889Z,-2.58
2023-01-18T07:06:46.063Z,-2.62
2023-01-18T07:10:46.087Z,-2.64
2023-01-18T07:14:46.112Z,-2.66
2023-01-18T07:18:47.437Z,-2.68
2023-01-18T07:26:46.051Z,-2.70
2023-01-18T07:30:45.904Z,-2.68
2023-01-18T07:42:46.426Z,-2.73
2023-01-18T07:46:45.954Z,-2.74
2023-01-18T07:50:51.175Z,-2.70
2023-01-18T07:54:45.911Z,-2.66
2023-01-18T07:58:46.108Z,-2.68
2023-01-18T08:02:50.049Z,-2.69
2023-01-18T08:06:46.171Z,-2.70
2023-01-18T08:10:45.968Z,-2.68
2023-01-18T08:14:46.180Z,-2.65
2023-01-18T08:18:48.674Z,-2.62
2023-01-18T08:22:46.168Z,-2.59
2023-01-18T08:30:47.890Z,-2.57
2023-01-18T08:34:46.109Z,-2.58
2023-01-18T08:38:47.143Z,-2.57
2023-01-18T08:42:45.980Z,-2.53
2023-01-18T08:46:46.278Z,-2.48
2023-01-18T08:50:46.206Z,-2.39
2023-01-18T08:58:47.027Z,-2.04
2023-01-18T09:02:47.818Z,-1.91
2023-01-18T09:06:48.360Z,-1.78
2023-01-18T09:10:46.080Z,-1.69
2023-01-18T09:14:46.487Z,-1.71
2023-01-18T09:18:46.508Z,-1.82
2023-01-18T09:22:46.931Z,-1.92
2023-01-18T09:26:50.025Z,-2.00
2023-01-18T09:30:46.333Z,-2.06
2023-01-18T09:34:49.612Z,-2.09
2023-01-18T09:38:46.385Z,-2.06
2023-01-18T09:42:48.232Z,-2.00
2023-01-18T09:46:49.050Z,-1.94
2023-01-18T09:50:46.173Z,-1.83
2023-01-18T09:54:55.358Z,-1.73
2023-01-18T09:58:55.964Z,-1.62
2023-01-18T10:02:49.157Z,-1.52
2023-01-18T10:06:51.761Z,-1.43
2023-01-18T10:10:54.339Z,-1.33
2023-01-18T10:14:52.230Z,-1.22
2023-01-18T10:18:48.713Z,-1.11
2023-01-18T10:22:51.886Z,-1.01
2023-01-18T10:26:48.338Z,-0.90
2023-01-18T10:31:00.698Z,-0.81
2023-01-18T10:34:50.573Z,-0.72
2023-01-18T10:38:49.403Z,-0.64
2023-01-18T10:42:48.196Z,-0.56
2023-01-18T10:46:46.348Z,-0.49
2023-01-18T10:50:50.473Z,-0.41
2023-01-18T10:54:49.625Z,-0.33
2023-01-18T10:58:53.381Z,-0.26
2023-01-18T11:02:48.243Z,-0.19
2023-01-18T11:06:48.640Z,-0.12
2023-01-18T11:10:56.540Z,-0.06
2023-01-18T11:14:46.897Z,0.02
2023-01-18T11:18:57.053Z,0.08
2023-01-18T11:22:53.300Z,0.15
2023-01-18T11:26:51.380Z,0.20
2023-01-18T11:30:51.121Z,0.26
2023-01-18T11:34:50.723Z,0.32
2023-01-18T11:38:47.261Z,0.39
2023-01-18T11:42:48.355Z,0.46
2023-01-18T11:46:51.106Z,0.51
2023-01-18T11:50:51.700Z,0.56
2023-01-18T11:54:52.382Z,0.60
2023-01-18T11:58:48.594Z,0.62
2023-01-18T12:03:01.493Z,0.61
2023-01-18T12:10:58.926Z,0.64
2023-01-18T12:14:59.268Z,0.67
2023-01-18T12:18:51.071Z,0.69
2023-01-18T12:19:04.436Z,0.69
2023-01-18T12:19:52.580Z,0.69
2023-01-18T12:23:17.575Z,0.72
2023-01-18T12:26:51.435Z,0.75
2023-01-18T12:30:57.088Z,0.80
2023-01-18T12:34:57.474Z,0.86
2023-01-18T12:38:50.609Z,0.92
2023-01-18T12:42:56.063Z,1.00
2023-01-18T12:47:00.559Z,1.07
2023-01-18T12:50:48.977Z,1.11
2023-01-18T12:54:49.985Z,1.15
2023-01-18T12:58:59.579Z,1.20
2023-01-18T13:01:04.824Z,1.20
2023-01-18T13:02:51.908Z,1.22
2023-01-18T13:06:50.762Z,1.23
2023-01-18T13:10:47.654Z,1.26
2023-01-18T13:14:54.550Z,1.31
2023-01-18T13:18:54.520Z,1.33
2023-01-18T13:22:59.921Z,1.34
2023-01-18T13:26:46.868Z,1.36
2023-01-18T13:30:55.555Z,1.36
2023-01-18T13:42:02.131Z,1.38
2023-01-18T13:42:08.827Z,1.38
2023-01-18T13:42:49.213Z,1.43
2023-01-18T13:43:32.967Z,1.43
2023-01-18T13:47:48.007Z,1.48
2023-01-18T13:50:46.909Z,1.54
2023-01-18T13:55:00.737Z,1.59
2023-01-18T13:58:52.398Z,1.61
2023-01-18T14:02:50.970Z,1.63
2023-01-18T14:06:48.549Z,1.68
2023-01-18T14:10:49.840Z,1.73
2023-01-18T14:14:52.943Z,1.79
2023-01-18T14:18:49.629Z,1.85
2023-01-18T14:23:00.289Z,1.89
2023-01-18T14:26:51.439Z,1.93
2023-01-18T14:30:47.620Z,1.95
2023-01-18T14:34:55.972Z,1.96
2023-01-18T14:38:57.267Z,1.98
2023-01-18T14:42:51.963Z,1.99
2023-01-18T14:46:50.027Z,2.01
2023-01-18T14:50:49.699Z,2.03
2023-01-18T14:54:51.874Z,2.06
2023-01-18T14:58:52.261Z,2.09
2023-01-18T15:02:47.223Z,2.10
2023-01-18T15:06:50.672Z,2.11
2023-01-18T15:14:48.754Z,2.07
2023-01-18T15:18:48.971Z,2.05
2023-01-18T15:22:49.628Z,2.04
2023-01-18T15:26:51.018Z,2.06
2023-01-18T15:30:49.111Z,2.09
2023-01-18T15:34:49.294Z,2.11
2023-01-18T15:38:47.405Z,2.14
2023-01-18T15:42:52.807Z,2.16
2023-01-18T15:46:48.169Z,2.19
2023-01-18T15:50:49.516Z,2.21
2023-01-18T15:54:48.826Z,2.24
2023-01-18T15:58:50.235Z,2.25
2023-01-18T16:02:47.863Z,2.24
2023-01-18T16:06:47.897Z,2.19
2023-01-18T16:10:50.079Z,2.04
2023-01-18T16:14:51.962Z,1.91
2023-01-18T16:18:51.032Z,1.81
2023-01-18T16:26:47.543Z,1.87
2023-01-18T16:30:49.139Z,1.89
2023-01-18T16:34:47.984Z,1.93
2023-01-18T16:38:47.299Z,1.96
2023-01-18T16:42:58.681Z,1.97
2023-01-18T16:46:48.308Z,2.00
2023-01-18T16:50:47.990Z,1.98
2023-01-18T16:58:47.665Z,1.97
2023-01-18T17:02:47.877Z,1.92
2023-01-18T17:06:48.307Z,1.82
2023-01-18T17:10:50.071Z,1.64
2023-01-18T17:14:47.539Z,1.51
2023-01-18T17:18:48.769Z,1.52
2023-01-18T17:22:48.173Z,1.58
2023-01-18T17:26:47.467Z,1.61
2023-01-18T17:30:49.336Z,1.54
2023-01-18T17:34:47.470Z,1.49
2023-01-18T17:38:47.539Z,1.45
2023-01-18T17:46:47.585Z,1.44
2023-01-18T17:50:47.421Z,1.47
2023-01-18T17:54:47.588Z,1.46
2023-01-18T17:58:48.394Z,1.44
2023-01-18T18:02:50.628Z,1.37
2023-01-18T18:06:54.366Z,1.29
2023-01-18T18:10:48.127Z,1.32
2023-01-18T18:14:50.547Z,1.43
2023-01-18T18:18:47.742Z,1.50
2023-01-18T18:22:47.928Z,1.52
2023-01-18T18:26:48.080Z,1.57
2023-01-18T18:30:51.657Z,1.65
2023-01-18T18:34:47.849Z,1.57
2023-01-18T18:35:28.534Z,1.57
2023-01-18T18:38:47.563Z,1.58
2023-01-18T18:46:47.847Z,1.63
2023-01-18T18:50:50.281Z,1.64
2023-01-18T18:54:47.889Z,1.65
2023-01-18T18:58:47.633Z,1.63
2023-01-18T19:02:47.787Z,1.60
2023-01-18T19:06:47.676Z,1.59
2023-01-18T19:10:48.250Z,1.61
2023-01-18T19:14:47.917Z,1.60
2023-01-18T19:18:47.681Z,1.55
2023-01-18T19:22:49.043Z,1.54
2023-01-18T19:26:47.934Z,1.56
2023-01-18T19:30:47.732Z,1.58
2023-01-18T19:34:47.729Z,1.54
2023-01-18T19:38:52.708Z,1.57
2023-01-18T19:42:53.740Z,1.58
2023-01-18T19:46:47.802Z,1.60
2023-01-18T19:54:48.099Z,1.63
2023-01-18T19:58:48.981Z,1.69
2023-01-18T20:02:48.210Z,1.75
2023-01-18T20:10:48.287Z,1.76
2023-01-18T20:14:48.444Z,1.77
2023-01-18T20:22:48.100Z,1.78
2023-01-18T20:26:47.917Z,1.80
2023-01-18T20:38:48.364Z,1.79
2023-01-18T20:42:47.941Z,1.78
2023-01-18T20:46:50.011Z,1.80
2023-01-18T20:50:48.083Z,1.81
2023-01-18T20:54:48.501Z,1.82
2023-01-18T20:58:48.096Z,1.80
2023-01-18T21:02:48.448Z,1.75
2023-01-18T21:06:48.784Z,1.67
2023-01-18T21:10:49.464Z,1.64
2023-01-18T21:14:48.039Z,1.59
2023-01-18T21:18:48.682Z,1.54
2023-01-18T21:22:48.027Z,1.49
2023-01-18T21:26:48.219Z,1.44
2023-01-18T21:30:48.610Z,1.40
2023-01-18T21:34:48.124Z,1.35
2023-01-18T21:38:48.327Z,1.33
2023-01-18T21:42:57.966Z,1.30
2023-01-18T21:46:50.150Z,1.28
2023-01-18T21:50:58.029Z,1.26
2023-01-18T21:54:48.285Z,1.25
2023-01-18T21:58:56.984Z,1.20
2023-01-18T22:02:48.263Z,1.17
2023-01-18T22:06:49.093Z,1.15
2023-01-18T22:10:48.675Z,1.14
2023-01-18T22:14:48.293Z,1.11
2023-01-18T22:18:48.220Z,1.08
2023-01-18T22:22:48.542Z,1.03
2023-01-18T22:26:48.213Z,0.95
2023-01-18T22:30:48.380Z,0.89
2023-01-18T22:34:48.241Z,0.83
2023-01-18T22:38:48.537Z,0.79
2023-01-18T22:42:48.191Z,0.77
2023-01-18T22:46:48.527Z,0.79
2023-01-18T22:50:50.461Z,0.77
2023-01-18T22:54:48.396Z,0.79
2023-01-18T22:58:49.074Z,0.77
2023-01-18T23:02:48.425Z,0.72
2023-01-18T23:06:49.664Z,0.65
2023-01-18T23:10:48.734Z,0.59
2023-01-18T23:14:58.275Z,0.57
2023-01-18T23:18:48.698Z,0.54
2023-01-18T23:22:48.311Z,0.56
2023-01-18T23:26:49.059Z,0.57
2023-01-18T23:30:48.467Z,0.58
2023-01-18T23:34:48.614Z,0.49
2023-01-18T23:38:58.354Z,0.41
2023-01-18T23:43:01.943Z,0.35
2023-01-18T23:46:58.329Z,0.28
2023-01-18T23:50:58.331Z,0.27
2023-01-18T23:54:48.470Z,0.32
2023-01-18T23:58:48.710Z,0.35
